Welcome to La Porte Aviation Services!

An aviation adventure awaits

Current Weather Conditions

Available data for KPPO from the past 2 hours
LA PORTE, IN
Metar
KPPO 210255Z AUTO 00000KT 10SM SCT029 19/19 A2998 RMK AO2 T01930190

02:55 UTC

Wind: 0° 0kt

Visibility: 10 SM

Sky: SCT 2900 ft

Temp: 19 deg C / 66.2 deg F

Dewpoint: 19 deg C / 66.2 deg F

Pressure: 29.98 inHg

Pireps (2)
FWA UA /OV GSH17010/TM 0245/FL110/TP CRJ2/TB CONS LGT INTMT MOD CHOP
FWA UA /OV FWA010030/TM 0131/FL215/TP BE20/SK TOP215/IC NEG DURGC

Connect with us on Facebook!

Facebook By Weblizar Powered By Weblizar